Time;durP1;ratioP1;P1;durP2;ratioP2;P2;SDS_P1;SDS_P2;PMS_P1;PMS_P2;Temp;Humidity;BMP_temperature;BMP_pressure;BME280_temperature;BME280_humidity;BME280_pressure;Samples;Min_cycle;Max_cycle;Signal;HPM_P1;HPM_P2
2022/12/17 13:07:24;;;;;;;16.70;13.18;;;;;;;-3.26;87.50;146523.53;5069770;28;20060;-65
2022/12/17 13:09:54;;;;;;;17.90;12.27;;;;;;;-3.39;87.56;146493.16;5068124;28;20058;-66
2022/12/17 13:12:53;;;;;;;17.73;12.40;;;;;;;-3.51;87.92;146462.72;5072902;28;20051;-65
2022/12/17 13:15:30;;;;;;;15.65;11.65;;;;;;;-3.70;88.06;146415.84;5065849;28;20036;-66
2022/12/17 13:18:22;;;;;;;17.85;12.65;;;;;;;-3.38;87.89;146495.66;5068502;28;20090;-66
2022/12/17 13:21:13;;;;;;;15.25;12.00;;;;;;;-3.44;87.77;146480.44;5043542;28;20053;-66
2022/12/17 13:23:39;;;;;;;19.55;14.02;;;;;;;-3.37;87.90;146496.94;5043333;28;20025;-66
2022/12/17 13:26:41;;;;;;;16.95;12.05;;;;;;;-3.43;87.54;146481.72;5036951;28;20017;-66
2022/12/17 13:29:41;;;;;;;16.65;12.00;;;;;;;-3.57;87.54;146447.53;5034050;28;20022;-65
2022/12/17 13:32:14;;;;;;;15.10;10.88;;;;;;;-3.47;87.56;146474.09;5025972;28;20072;-66
2022/12/17 13:34:45;;;;;;;17.13;12.70;;;;;;;-3.56;87.43;146451.31;5032146;28;20109;-66
2022/12/17 13:37:43;;;;;;;15.05;10.45;;;;;;;-3.53;87.99;146458.91;5026292;28;20411;-66
2022/12/17 13:40:18;;;;;;;16.50;11.95;;;;;;;-3.48;88.32;146470.31;5041758;28;20118;-67
2022/12/17 13:42:46;;;;;;;16.95;12.25;;;;;;;-3.50;87.57;146466.50;5041920;28;20542;-65
2022/12/17 13:45:18;;;;;;;17.95;12.40;;;;;;;-3.44;87.94;146479.19;5044179;28;20096;-67
2022/12/17 13:47:55;;;;;;;16.98;12.05;;;;;;;-3.36;87.98;146499.50;5025777;28;20021;-65
2022/12/17 13:50:27;;;;;;;15.73;12.00;;;;;;;-3.34;87.58;146505.78;5042312;28;20018;-65
2022/12/17 13:52:53;;;;;;;15.93;12.77;;;;;;;-3.27;87.90;146521.03;5045468;28;20021;-66
2022/12/17 13:55:22;;;;;;;15.57;11.85;;;;;;;-3.61;87.90;146438.63;5040508;28;20021;-65
2022/12/17 13:57:49;;;;;;;18.58;12.10;;;;;;;-3.42;87.79;146485.56;5039407;28;20051;-66
2022/12/17 14:00:27;;;;;;;16.20;12.27;;;;;;;-3.67;87.69;146423.44;5025428;28;20647;-66
2022/12/17 14:02:53;;;;;;;16.17;12.10;;;;;;;-3.32;87.64;146509.59;5025475;28;20442;-66
2022/12/17 14:05:31;;;;;;;17.63;13.30;;;;;;;-3.28;87.46;146519.75;5027860;28;20101;-65
2022/12/17 14:08:03;;;;;;;16.30;12.57;;;;;;;-3.37;87.18;146498.19;5037822;28;20040;-66
2022/12/17 14:10:29;;;;;;;16.77;12.02;;;;;;;-3.46;87.70;146475.41;5036563;28;20033;-65
2022/12/17 14:13:07;;;;;;;16.60;12.38;;;;;;;-3.67;88.27;146423.44;5029777;28;20030;-65
2022/12/17 14:15:32;;;;;;;16.23;12.77;;;;;;;-3.51;88.81;146462.72;5025403;28;20038;-64
2022/12/17 14:17:59;;;;;;;18.27;11.50;;;;;;;-3.54;88.61;146455.13;5025088;28;20246;-65
2022/12/17 14:20:29;;;;;;;18.80;13.25;;;;;;;-3.58;88.00;146444.97;5041991;28;20099;-65
2022/12/17 14:23:00;;;;;;;18.35;13.40;;;;;;;-3.41;88.26;146486.81;5036932;28;20352;-65
2022/12/17 14:25:31;;;;;;;18.15;13.63;;;;;;;-3.57;87.76;146448.78;5032996;28;20072;-65
2022/12/17 14:28:02;;;;;;;15.63;11.35;;;;;;;-3.61;88.54;146437.38;5032750;28;20045;-65
2022/12/17 14:30:41;;;;;;;21.05;13.55;;;;;;;-3.56;88.26;146451.31;5024661;28;20030;-66
2022/12/17 14:33:26;;;;;;;16.90;13.45;;;;;;;-3.32;87.86;146510.88;5025064;28;20314;-65
2022/12/17 14:35:57;;;;;;;17.92;13.65;;;;;;;-3.16;87.80;146548.94;5024983;28;20034;-65
2022/12/17 14:38:24;;;;;;;18.30;12.88;;;;;;;-3.50;88.12;146465.25;5026742;28;20053;-65
2022/12/17 14:40:50;;;;;;;17.95;12.80;;;;;;;-3.65;88.22;146428.47;5025025;28;20026;-65
2022/12/17 14:43:16;;;;;;;18.38;13.32;;;;;;;-3.34;87.90;146505.78;5031936;28;20213;-66
2022/12/17 14:51:26;;;;;;;19.52;14.35;;;;;;;-3.55;87.82;146453.88;5024595;28;20298;-66
2022/12/17 14:53:52;;;;;;;20.38;13.57;;;;;;;-3.39;87.72;146493.16;5023294;28;20030;-67
2022/12/17 14:56:22;;;;;;;17.38;13.30;;;;;;;-3.45;88.26;146476.66;5039632;28;20044;-66
2022/12/17 14:58:48;;;;;;;16.75;13.57;;;;;;;-3.35;87.31;146503.28;5032614;28;20042;-66
2022/12/17 15:01:14;;;;;;;17.15;13.48;;;;;;;-3.47;87.31;146472.84;5030977;28;20089;-65
2022/12/17 15:03:44;;;;;;;18.70;13.35;;;;;;;-3.54;87.51;146456.38;5041460;28;20053;-66
2022/12/17 15:06:16;;;;;;;17.83;14.05;;;;;;;-3.37;87.67;146498.19;5024387;28;20038;-66
2022/12/17 15:08:45;;;;;;;17.00;13.18;;;;;;;-3.37;87.12;146496.94;5042712;28;20021;-65
2022/12/17 15:11:13;;;;;;;19.25;14.02;;;;;;;-3.41;87.21;146488.06;5029103;28;20049;-66
2022/12/17 15:13:38;;;;;;;20.52;13.07;;;;;;;-3.48;87.10;146471.59;5023904;28;20315;-65
2022/12/17 15:16:04;;;;;;;16.13;12.18;;;;;;;-3.88;87.19;146371.47;5023486;28;20050;-66
2022/12/17 15:18:30;;;;;;;17.33;13.23;;;;;;;-3.46;87.46;146475.41;5023711;28;20314;-65
2022/12/17 15:20:55;;;;;;;18.13;13.30;;;;;;;-3.37;87.76;146496.94;5032164;28;20025;-65
2022/12/17 15:23:22;;;;;;;19.00;13.60;;;;;;;-3.53;88.09;146458.91;5038858;28;20033;-66
2022/12/17 15:25:50;;;;;;;17.27;13.70;;;;;;;-3.51;87.47;146463.97;5032449;28;20045;-65
2022/12/17 15:28:17;;;;;;;19.10;13.18;;;;;;;-3.33;87.27;146508.34;5023754;28;20060;-66
2022/12/17 15:30:43;;;;;;;21.15;14.82;;;;;;;-3.37;87.23;146498.19;5025591;28;20245;-66
2022/12/17 15:33:09;;;;;;;19.55;15.00;;;;;;;-3.36;87.36;146500.75;5043441;28;20025;-66
2022/12/17 15:35:36;;;;;;;20.13;14.43;;;;;;;-3.25;86.85;146527.38;5026085;28;20104;-65
2022/12/17 15:38:03;;;;;;;17.92;13.90;;;;;;;-3.33;87.23;146508.34;5023364;28;20097;-65
2022/12/17 15:40:28;;;;;;;21.05;13.43;;;;;;;-3.50;87.47;146465.25;5032037;28;20178;-65
2022/12/17 15:43:12;;;;;;;18.48;14.02;;;;;;;-3.45;87.16;146477.91;5039750;28;20034;-68
2022/12/17 15:45:43;;;;;;;18.73;13.57;;;;;;;-3.37;87.63;146498.19;5027564;28;20030;-67
2022/12/17 15:48:11;;;;;;;19.90;14.60;;;;;;;-3.57;87.31;146447.53;5042447;28;20074;-67
2022/12/17 15:50:37;;;;;;;19.80;14.98;;;;;;;-3.31;87.04;146513.44;5041996;28;20206;-65
2022/12/17 15:53:03;;;;;;;21.73;14.55;;;;;;;-3.31;86.78;146512.13;5043429;28;20092;-64
2022/12/17 15:55:48;;;;;;;20.27;15.63;;;;;;;-3.27;87.24;146521.03;5039181;28;20025;-66
2022/12/17 15:58:15;;;;;;;20.67;15.20;;;;;;;-3.26;87.09;146523.53;5036978;28;20101;-65
2022/12/17 16:00:40;;;;;;;18.58;14.68;;;;;;;-3.30;86.97;146515.94;5024991;28;20120;-64
2022/12/17 16:03:06;;;;;;;19.23;14.73;;;;;;;-3.34;87.83;146504.53;5036354;28;20028;-64
2022/12/17 16:05:31;;;;;;;22.17;14.80;;;;;;;-3.40;87.73;146490.59;5023947;28;20048;-65
2022/12/17 16:08:00;;;;;;;19.40;14.50;;;;;;;-3.55;87.56;146452.56;5023677;28;20042;-64
2022/12/17 16:10:26;;;;;;;20.60;14.18;;;;;;;-3.61;87.65;146438.63;5041136;28;20029;-64
2022/12/17 16:12:52;;;;;;;19.77;14.32;;;;;;;-3.53;87.90;146457.66;5038752;28;20017;-65
2022/12/17 16:15:17;;;;;;;20.10;14.20;;;;;;;-3.62;87.68;146434.81;5041478;28;20052;-64
2022/12/17 16:17:43;;;;;;;24.23;15.57;;;;;;;-3.55;87.88;146452.56;5040969;28;20029;-65
2022/12/17 16:20:10;;;;;;;20.58;15.27;;;;;;;-3.49;88.05;146467.81;5040981;28;20045;-64
2022/12/17 16:22:36;;;;;;;21.27;14.55;;;;;;;-3.40;87.94;146489.34;5042646;28;20024;-64
2022/12/17 16:25:02;;;;;;;21.98;14.85;;;;;;;-3.53;87.58;146457.66;5038352;28;20156;-64
2022/12/17 16:27:28;;;;;;;19.45;15.07;;;;;;;-3.49;87.88;146469.06;5023192;28;20026;-65
2022/12/17 16:29:53;;;;;;;21.17;15.98;;;;;;;-3.50;87.88;146465.25;5024193;28;20033;-64
2022/12/17 16:32:19;;;;;;;25.25;16.17;;;;;;;-3.41;87.88;146486.81;5027670;28;20026;-64
2022/12/17 16:34:45;;;;;;;21.08;15.45;;;;;;;-3.41;87.71;146488.06;5032964;28;20060;-64
2022/12/17 16:37:11;;;;;;;24.48;16.38;;;;;;;-3.33;87.19;146507.09;5037069;28;20033;-64
2022/12/17 16:39:37;;;;;;;21.55;15.93;;;;;;;-3.40;87.16;146490.59;5022635;28;20049;-64
2022/12/17 16:42:02;;;;;;;23.08;16.70;;;;;;;-3.30;88.02;146514.69;5029058;28;20026;-64
2022/12/17 16:44:28;;;;;;;24.67;15.98;;;;;;;-3.49;87.56;146469.06;5042151;28;20360;-65
2022/12/17 16:46:54;;;;;;;24.08;16.05;;;;;;;-3.35;87.77;146503.28;5033971;28;20306;-64
2022/12/17 16:49:23;;;;;;;21.33;16.17;;;;;;;-3.31;87.30;146513.44;5026602;28;20084;-64
2022/12/17 16:51:50;;;;;;;22.77;16.33;;;;;;;-3.43;87.35;146481.72;5028909;28;20065;-63
2022/12/17 16:54:20;;;;;;;24.42;16.45;;;;;;;-3.43;88.28;146483.00;5046818;28;20314;-66
2022/12/17 16:56:46;;;;;;;26.00;17.02;;;;;;;-3.40;88.09;146489.34;5043396;28;20029;-64
2022/12/17 16:59:13;;;;;;;24.65;17.33;;;;;;;-3.40;87.86;146489.34;5033023;28;20105;-64
2022/12/17 17:01:40;;;;;;;27.67;17.77;;;;;;;-3.27;87.51;146521.03;5026392;28;20306;-65
2022/12/17 17:04:08;;;;;;;21.67;16.10;;;;;;;-3.40;87.72;146489.34;5026862;28;20037;-63
2022/12/17 17:06:44;;;;;;;24.40;16.83;;;;;;;-3.39;87.71;146493.16;5026535;28;20222;-64
2022/12/17 17:09:11;;;;;;;21.88;16.02;;;;;;;-3.27;87.53;146522.28;5046412;28;20635;-64
2022/12/17 17:11:37;;;;;;;24.77;17.13;;;;;;;-3.31;86.54;146513.44;5034961;28;20033;-65
2022/12/17 17:14:04;;;;;;;22.10;16.67;;;;;;;-3.28;87.21;146518.50;5046198;28;20033;-65
2022/12/17 17:16:30;;;;;;;21.80;15.70;;;;;;;-3.55;87.82;146453.88;5038441;28;20346;-64
2022/12/17 17:18:55;;;;;;;23.88;16.92;;;;;;;-3.57;88.68;146448.78;5029341;28;20026;-64
2022/12/17 17:21:35;;;;;;;22.38;15.98;;;;;;;-3.65;88.96;146429.78;5046106;28;20210;-64
2022/12/17 17:24:05;;;;;;;23.60;16.70;;;;;;;-3.58;88.29;146446.22;5026367;28;20262;-65
2022/12/17 17:26:32;;;;;;;23.63;16.77;;;;;;;-3.51;88.55;146462.72;5042034;28;20030;-65
2022/12/17 17:28:59;;;;;;;23.70;15.95;;;;;;;-3.61;88.70;146437.38;5034109;28;20057;-64
2022/12/17 17:31:25;;;;;;;25.50;17.13;;;;;;;-3.60;88.67;146439.94;5026037;28;20434;-64
2022/12/17 17:33:52;;;;;;;21.10;15.90;;;;;;;-3.52;88.67;146461.47;5028289;28;20038;-64
2022/12/17 17:36:19;;;;;;;24.60;16.88;;;;;;;-3.88;88.81;146372.72;5046176;28;20256;-63
2022/12/17 17:38:45;;;;;;;23.25;16.65;;;;;;;-3.57;89.13;146448.78;5037961;28;20034;-64
2022/12/17 17:41:13;;;;;;;24.70;17.35;;;;;;;-3.58;88.62;146446.22;5031164;28;20077;-64
2022/12/17 17:43:39;;;;;;;23.98;16.80;;;;;;;-3.71;89.20;146414.53;5034284;28;20025;-64
2022/12/17 17:46:06;;;;;;;26.67;18.58;;;;;;;-3.49;89.19;146469.06;5041714;28;20026;-65
2022/12/17 17:48:32;;;;;;;23.73;17.15;;;;;;;-3.57;88.70;146447.53;5025678;28;20026;-64
2022/12/17 17:51:26;;;;;;;23.88;16.52;;;;;;;-3.47;88.65;146472.84;5043803;28;20036;-65
2022/12/17 17:53:53;;;;;;;23.05;16.17;;;;;;;-3.65;89.23;146429.78;5044185;28;20049;-64
2022/12/17 17:56:24;;;;;;;25.00;17.73;;;;;;;-3.86;89.22;146377.81;5044186;28;20224;-65
2022/12/17 17:58:53;;;;;;;26.45;17.40;;;;;;;-3.62;89.86;146434.81;5034214;28;20100;-64
2022/12/17 18:01:26;;;;;;;26.10;17.77;;;;;;;-3.41;88.94;146488.06;5026414;28;20033;-65
2022/12/17 18:03:54;;;;;;;24.38;17.67;;;;;;;-3.62;89.31;146434.81;5035253;28;20037;-65
2022/12/17 18:06:20;;;;;;;25.15;17.55;;;;;;;-3.52;88.82;146460.16;5033508;28;20049;-64
2022/12/17 18:08:47;;;;;;;25.52;17.90;;;;;;;-3.55;89.01;146452.56;5037224;28;20041;-64
2022/12/17 18:11:15;;;;;;;26.08;18.23;;;;;;;-3.49;88.98;146467.81;5029586;28;20034;-65
2022/12/17 18:13:54;;;;;;;23.58;16.38;;;;;;;-3.67;89.17;146423.44;5034933;28;20353;-64
2022/12/17 18:16:24;;;;;;;23.30;16.98;;;;;;;-3.45;89.21;146476.66;5037883;28;20060;-64
2022/12/17 18:18:52;;;;;;;24.63;17.63;;;;;;;-3.45;89.32;146477.91;5043419;28;20322;-65
2022/12/17 18:21:18;;;;;;;21.90;14.40;;;;;;;-3.75;89.14;146403.16;5025320;28;20026;-63
2022/12/17 18:23:44;;;;;;;25.70;17.15;;;;;;;-3.58;89.51;146444.97;5026056;28;20068;-65
2022/12/17 18:26:14;;;;;;;25.38;18.90;;;;;;;-3.79;89.60;146393.00;5024962;28;20057;-65
2022/12/17 18:28:41;;;;;;;23.25;16.55;;;;;;;-3.55;89.35;146452.56;5025234;28;20268;-64
2022/12/17 18:31:13;;;;;;;25.30;17.77;;;;;;;-3.49;88.99;146469.06;5037337;28;20033;-65
2022/12/17 18:33:41;;;;;;;22.70;15.93;;;;;;;-3.58;89.26;146446.22;5025008;28;20329;-65
2022/12/17 18:36:12;;;;;;;26.85;17.60;;;;;;;-3.61;89.38;146437.38;5039195;28;20199;-64
2022/12/17 18:38:38;;;;;;;23.23;17.17;;;;;;;-3.69;88.95;146418.34;5029919;28;20030;-64
2022/12/17 18:43:59;;;;;;;27.25;19.40;;;;;;;-3.47;89.52;146472.84;5023246;28;20042;-64
2022/12/17 18:46:25;;;;;;;27.75;18.42;;;;;;;-3.58;89.03;146446.22;5033325;28;20052;-65
2022/12/17 18:48:52;;;;;;;26.92;18.13;;;;;;;-3.31;88.58;146512.13;5031979;28;20198;-66
2022/12/17 18:51:20;;;;;;;27.50;18.13;;;;;;;-3.43;88.47;146483.00;5030045;28;20033;-65
2022/12/17 18:53:46;;;;;;;27.70;19.50;;;;;;;-3.20;88.28;146540.03;5031483;28;20197;-64
2022/12/17 18:56:12;;;;;;;24.60;17.88;;;;;;;-3.24;88.13;146528.63;5034757;28;20048;-64
2022/12/17 18:58:38;;;;;;;21.83;16.67;;;;;;;-3.30;88.43;146515.94;5035943;28;20026;-64
2022/12/17 19:01:05;;;;;;;23.10;15.60;;;;;;;-3.59;89.17;146442.44;5027508;28;20028;-64
2022/12/17 19:03:31;;;;;;;23.75;17.25;;;;;;;-3.33;89.06;146508.34;5044138;28;20321;-65
2022/12/17 19:05:57;;;;;;;26.38;18.48;;;;;;;-3.27;89.22;146522.28;5043932;28;20096;-64
2022/12/17 19:08:23;;;;;;;23.27;16.63;;;;;;;-3.04;88.77;146578.06;5029638;28;20030;-65
2022/12/17 19:10:48;;;;;;;25.73;18.80;;;;;;;-3.03;88.84;146581.88;5033416;28;20052;-65
2022/12/17 19:13:14;;;;;;;25.20;18.40;;;;;;;-3.01;88.45;146585.69;5039218;28;20081;-64
2022/12/17 19:15:40;;;;;;;24.98;17.30;;;;;;;-3.17;88.40;146547.63;5023729;28;20053;-64
2022/12/17 19:18:05;;;;;;;23.42;17.52;;;;;;;-3.01;88.07;146586.94;5043655;28;20117;-65
2022/12/17 19:20:31;;;;;;;26.48;17.42;;;;;;;-3.01;88.08;146586.94;5035992;28;20291;-65
2022/12/17 19:22:56;;;;;;;22.33;15.73;;;;;;;-3.17;88.56;146547.63;5025258;28;20022;-65
2022/12/17 19:25:22;;;;;;;24.38;16.58;;;;;;;-3.22;88.72;146534.97;5023557;28;20025;-63
2022/12/17 19:27:47;;;;;;;22.63;16.23;;;;;;;-3.07;88.98;146570.47;5024385;28;20026;-64
2022/12/17 19:30:13;;;;;;;22.30;16.92;;;;;;;-3.26;88.31;146523.53;5043469;28;20101;-64
2022/12/17 19:32:38;;;;;;;23.55;15.90;;;;;;;-3.35;88.56;146502.00;5027198;28;20021;-64
2022/12/17 19:35:04;;;;;;;23.40;16.92;;;;;;;-3.47;88.67;146474.09;5034885;28;20029;-64
2022/12/17 19:37:30;;;;;;;21.45;16.80;;;;;;;-3.42;89.56;146484.25;5037208;28;20032;-63
2022/12/17 19:39:55;;;;;;;21.75;16.15;;;;;;;-3.35;89.23;146502.00;5025344;28;20206;-63
2022/12/17 19:42:23;;;;;;;23.23;16.20;;;;;;;-3.27;88.79;146521.03;5043487;28;20324;-64
2022/12/17 19:44:51;;;;;;;21.08;15.52;;;;;;;-3.51;88.88;146462.72;5026334;28;20037;-63
2022/12/17 19:47:17;;;;;;;21.75;15.15;;;;;;;-3.44;89.30;146480.44;5022641;28;20342;-65
2022/12/17 19:49:42;;;;;;;23.70;16.27;;;;;;;-3.26;89.22;146523.53;5028744;28;20025;-64
2022/12/17 19:52:08;;;;;;;24.75;17.42;;;;;;;-3.24;88.61;146529.88;5036050;28;20025;-64
2022/12/17 19:54:34;;;;;;;19.35;14.88;;;;;;;-3.60;88.88;146439.94;5022020;28;20029;-64
2022/12/17 19:56:59;;;;;;;23.35;15.57;;;;;;;-3.43;88.89;146483.00;5042138;28;20252;-64
2022/12/17 19:59:25;;;;;;;20.77;15.73;;;;;;;-3.28;88.33;146518.50;5029550;28;20032;-64
2022/12/17 20:01:50;;;;;;;19.35;14.82;;;;;;;-3.50;88.54;146465.25;5039001;28;20068;-63
2022/12/17 20:04:17;;;;;;;20.85;15.80;;;;;;;-3.58;88.54;146446.22;5039095;28;20038;-63
2022/12/17 20:06:43;;;;;;;19.65;15.30;;;;;;;-3.36;88.28;146500.75;5038889;28;20336;-63
2022/12/17 20:09:09;;;;;;;22.48;15.65;;;;;;;-3.37;88.28;146496.94;5043041;28;20317;-64
2022/12/17 20:11:36;;;;;;;22.58;15.90;;;;;;;-3.34;88.39;146504.53;5035729;28;20033;-64
2022/12/17 20:14:01;;;;;;;21.70;16.23;;;;;;;-3.32;88.76;146510.88;5023295;28;20034;-65
2022/12/17 20:16:28;;;;;;;21.30;15.63;;;;;;;-3.40;88.32;146490.59;5023357;28;20289;-62
2022/12/17 20:18:54;;;;;;;22.67;16.05;;;;;;;-3.31;88.36;146513.44;5023376;28;20057;-63
2022/12/17 20:21:20;;;;;;;21.92;15.18;;;;;;;-3.46;88.40;146475.41;5022792;28;20026;-63
2022/12/17 20:23:47;;;;;;;22.45;16.17;;;;;;;-3.48;88.84;146471.59;5024956;28;20022;-63
2022/12/17 20:26:13;;;;;;;20.38;15.60;;;;;;;-3.42;88.00;146485.56;5035007;28;20026;-65
2022/12/17 20:28:39;;;;;;;22.88;15.73;;;;;;;-3.38;88.34;146494.41;5031237;28;20022;-64
2022/12/17 20:31:05;;;;;;;21.98;15.43;;;;;;;-3.46;87.67;146475.41;5023711;28;20052;-65
2022/12/17 20:33:31;;;;;;;20.17;14.52;;;;;;;-3.47;88.20;146472.84;5040889;28;20029;-64
2022/12/17 20:36:10;;;;;;;20.80;14.88;;;;;;;-3.41;88.08;146486.81;5024870;28;20374;-64
2022/12/17 20:38:37;;;;;;;21.23;15.18;;;;;;;-3.69;89.28;146418.34;5022443;28;20037;-64
2022/12/17 20:41:15;;;;;;;21.45;15.77;;;;;;;-3.59;89.46;146443.72;5033250;28;20067;-63
2022/12/17 20:43:41;;;;;;;19.20;14.40;;;;;;;-3.67;89.59;146423.44;5041469;28;20234;-65
2022/12/17 20:46:09;;;;;;;22.20;16.25;;;;;;;-3.67;89.72;146424.69;5040010;28;20345;-65
2022/12/17 20:48:36;;;;;;;23.23;15.75;;;;;;;-3.50;89.78;146466.50;5022658;28;20097;-65
2022/12/17 20:51:06;;;;;;;19.52;15.20;;;;;;;-3.60;89.53;146441.19;5022677;28;20077;-65
2022/12/17 20:53:34;;;;;;;18.75;13.73;;;;;;;-3.70;89.73;146417.09;5037052;28;20033;-65
2022/12/17 20:56:06;;;;;;;21.42;16.13;;;;;;;-3.77;89.75;146399.34;5032984;28;20384;-65
2022/12/17 20:58:31;;;;;;;;;;;;;;;-3.74;89.13;146406.94;5035189;28;20029;-63
2022/12/17 21:01:21;;;;;;;23.45;16.70;;;;;;;-3.63;89.85;146433.56;5040659;28;19909;-62
2022/12/17 21:04:07;;;;;;;22.17;16.55;;;;;;;-3.46;90.00;146475.41;5039404;28;20037;-62
2022/12/17 21:06:41;;;;;;;21.50;16.92;;;;;;;-3.36;89.37;146500.75;5022786;28;20029;-63
2022/12/17 21:09:08;;;;;;;21.15;15.07;;;;;;;-3.44;89.48;146480.44;5040735;28;20068;-64
2022/12/17 21:11:35;;;;;;;18.25;14.45;;;;;;;-3.57;89.51;146447.53;5029222;28;20033;-66
2022/12/17 21:14:10;;;;;;;20.60;14.95;;;;;;;-3.64;89.51;146432.28;5035383;28;20314;-66
2022/12/17 21:16:37;;;;;;;21.15;15.35;;;;;;;-3.52;89.63;146460.16;5029555;28;20065;-64
2022/12/17 21:19:05;;;;;;;20.90;15.32;;;;;;;-3.70;89.50;146417.09;5024293;28;20033;-64
2022/12/17 21:21:32;;;;;;;20.38;15.02;;;;;;;-3.53;89.32;146457.66;5042164;28;20060;-64
2022/12/17 21:23:59;;;;;;;19.70;15.57;;;;;;;-3.46;89.72;146475.41;5033502;28;20068;-65
2022/12/17 21:26:31;;;;;;;19.92;14.85;;;;;;;-3.70;89.95;146417.09;5029387;28;20049;-63
2022/12/17 21:28:57;;;;;;;21.10;15.18;;;;;;;-3.65;89.55;146429.78;5030084;28;20056;-64
2022/12/17 21:31:31;;;;;;;18.63;13.98;;;;;;;-3.67;89.98;146424.69;5031653;28;20067;-64
2022/12/17 21:34:00;;;;;;;19.08;14.32;;;;;;;-3.92;90.19;146362.63;5038614;28;20243;-63
2022/12/17 21:36:27;;;;;;;18.83;14.35;;;;;;;-3.65;90.01;146428.47;5031407;28;20026;-64
2022/12/17 21:38:54;;;;;;;18.92;14.50;;;;;;;-3.45;90.31;146477.91;5033568;28;20037;-64
2022/12/17 21:41:22;;;;;;;21.25;15.30;;;;;;;-3.65;90.09;146428.47;5028458;28;20237;-64
2022/12/17 21:43:55;;;;;;;18.63;13.50;;;;;;;-3.83;89.86;146385.41;5036268;28;20029;-63
2022/12/17 21:46:21;;;;;;;19.73;14.82;;;;;;;-3.64;89.90;146431.03;5036623;28;20029;-63
2022/12/17 21:48:46;;;;;;;21.83;14.88;;;;;;;-3.56;90.03;146450.03;5034396;28;20037;-63
2022/12/17 21:51:13;;;;;;;19.90;14.80;;;;;;;-3.50;89.53;146465.25;5026333;28;20203;-63
2022/12/17 21:53:42;;;;;;;18.88;13.80;;;;;;;-3.67;89.55;146423.44;5039863;28;20036;-63
2022/12/17 21:56:12;;;;;;;20.85;13.88;;;;;;;-3.82;90.17;146387.97;5037133;28;20076;-63
2022/12/17 21:58:39;;;;;;;15.15;12.07;;;;;;;-3.79;90.45;146394.31;5033537;28;20021;-62
2022/12/17 22:01:12;;;;;;;17.80;14.18;;;;;;;-4.02;90.71;146338.56;5024763;28;20214;-63
2022/12/17 22:03:38;;;;;;;21.00;14.77;;;;;;;-3.53;90.60;146458.91;5028045;28;20026;-63
2022/12/17 22:06:06;;;;;;;18.52;14.13;;;;;;;-3.62;89.93;146436.06;5025584;28;20084;-62
2022/12/17 22:08:32;;;;;;;18.85;13.38;;;;;;;-3.60;90.38;146439.94;5028268;28;20038;-63
2022/12/17 22:10:57;;;;;;;18.00;13.82;;;;;;;-3.65;90.48;146429.78;5037517;28;20085;-62
2022/12/17 22:16:07;;;;;;;17.50;12.35;;;;;;;-3.77;90.35;146399.34;5024766;28;20109;-63
2022/12/17 22:18:33;;;;;;;18.75;13.70;;;;;;;-3.81;91.14;146389.22;5028479;28;20025;-62
2022/12/17 22:20:59;;;;;;;17.98;12.90;;;;;;;-3.75;90.76;146403.16;5031280;28;20053;-63
2022/12/17 22:23:25;;;;;;;20.67;14.60;;;;;;;-3.54;90.71;146456.38;5011118;28;20049;-63
2022/12/17 22:25:51;;;;;;;18.92;13.95;;;;;;;-3.55;90.67;146452.56;5033037;28;20322;-63
2022/12/17 22:28:16;;;;;;;18.70;13.27;;;;;;;-3.58;90.45;146446.22;5040413;28;20029;-63
2022/12/17 22:33:26;;;;;;;17.75;12.35;;;;;;;-3.72;89.70;146410.75;5025065;28;20076;-63
2022/12/17 22:35:51;;;;;;;18.25;13.43;;;;;;;-3.68;90.63;146420.88;5024843;28;20033;-63
2022/12/17 22:38:17;;;;;;;17.20;12.20;;;;;;;-3.74;89.87;146406.94;5025106;28;20030;-63
2022/12/17 22:40:42;;;;;;;19.45;13.43;;;;;;;-3.70;90.49;146417.09;5031541;28;20025;-64
2022/12/17 22:43:29;;;;;;;16.88;12.10;;;;;;;-3.66;90.52;146427.22;5042225;28;20036;-62
2022/12/17 22:46:00;;;;;;;17.60;13.15;;;;;;;-3.59;90.43;146442.44;5024623;28;20037;-62
2022/12/17 22:48:26;;;;;;;17.88;12.07;;;;;;;-3.64;90.41;146432.28;5024673;28;20052;-62
2022/12/17 22:50:51;;;;;;;16.90;12.05;;;;;;;-3.66;90.60;146427.22;5042437;28;20029;-63
2022/12/17 22:53:17;;;;;;;15.02;11.85;;;;;;;-3.61;90.41;146438.63;5033405;28;20057;-63
2022/12/17 22:55:42;;;;;;;16.48;12.40;;;;;;;-3.80;90.71;146391.75;5031105;28;20306;-62
2022/12/17 22:58:08;;;;;;;16.25;11.27;;;;;;;-3.73;91.12;146409.50;5044775;28;20029;-64
2022/12/17 23:00:35;;;;;;;15.90;12.40;;;;;;;-3.64;91.14;146432.28;5044300;28;20044;-63
2022/12/17 23:03:01;;;;;;;15.70;12.05;;;;;;;-3.64;91.09;146432.28;5027170;28;20373;-64
2022/12/17 23:05:27;;;;;;;16.45;12.13;;;;;;;-3.59;90.35;146442.44;5036747;28;20036;-63
2022/12/17 23:07:54;;;;;;;17.88;12.77;;;;;;;-3.74;90.72;146406.94;5036295;28;20034;-62
2022/12/17 23:10:20;;;;;;;20.48;12.68;;;;;;;-3.74;91.39;146405.69;5035718;28;20052;-63
2022/12/17 23:12:53;;;;;;;16.58;11.93;;;;;;;-3.60;91.04;146441.19;5025628;28;20033;-62
2022/12/17 23:15:25;;;;;;;15.50;11.88;;;;;;;-3.77;91.39;146399.34;5027308;28;20045;-64
2022/12/17 23:17:52;;;;;;;16.10;11.77;;;;;;;-3.78;91.11;146396.81;5043919;28;20256;-62
2022/12/17 23:20:19;;;;;;;17.42;12.27;;;;;;;-3.87;91.11;146374.03;5032906;28;20037;-62
2022/12/17 23:22:45;;;;;;;14.98;11.52;;;;;;;-3.76;91.86;146401.91;5027650;28;20049;-64
2022/12/17 23:25:11;;;;;;;15.32;11.45;;;;;;;-3.74;92.09;146405.69;5024215;28;20038;-63
2022/12/17 23:27:37;;;;;;;14.23;10.70;;;;;;;-3.92;91.22;146361.34;5024286;28;20238;-61
2022/12/17 23:30:04;;;;;;;14.68;11.13;;;;;;;-3.78;92.13;146395.56;5041156;28;20041;-62
2022/12/17 23:32:29;;;;;;;14.82;10.95;;;;;;;-3.85;91.73;146379.06;5030974;28;20049;-63
2022/12/17 23:34:55;;;;;;;13.82;11.13;;;;;;;-3.88;92.19;146372.72;5031847;28;20313;-63
2022/12/17 23:37:20;;;;;;;17.17;10.57;;;;;;;-3.80;91.89;146391.75;5040960;28;20030;-63
2022/12/17 23:39:46;;;;;;;16.83;11.20;;;;;;;-3.81;91.33;146389.22;5023964;28;20318;-62
2022/12/17 23:42:11;;;;;;;13.00;10.23;;;;;;;-3.78;91.62;146396.81;5024122;28;20084;-62
2022/12/17 23:44:37;;;;;;;12.95;10.30;;;;;;;-4.04;92.02;146332.22;5037382;28;20079;-62
2022/12/17 23:47:02;;;;;;;14.63;10.07;;;;;;;-4.18;91.99;146298.00;5039733;28;20038;-61
2022/12/17 23:49:28;;;;;;;15.05;10.75;;;;;;;-4.00;93.60;146343.59;5042507;28;20025;-63
2022/12/17 23:51:53;;;;;;;13.25;10.27;;;;;;;-3.99;93.62;146346.16;5043460;28;20261;-66
2022/12/17 23:54:19;;;;;;;14.40;10.52;;;;;;;-3.88;93.45;146372.72;5042023;28;20457;-62
2022/12/17 23:56:45;;;;;;;12.63;9.93;;;;;;;-3.99;93.01;146346.16;5042476;28;20340;-61
2022/12/17 23:59:10;;;;;;;13.65;10.40;;;;;;;-3.96;92.07;146351.19;5043493;28;20189;-61
